createdAt,value
2016-04-26T00:00:11.529Z,97.25
2016-04-26T00:01:12.015Z,97.35
2016-04-26T00:02:11.300Z,97.92
2016-04-26T00:03:11.270Z,98.11
2016-04-26T00:04:11.398Z,97.82
2016-04-26T00:05:11.386Z,98.2
2016-04-26T00:06:11.346Z,98.2
2016-04-26T00:07:11.301Z,98.77
2016-04-26T00:08:11.273Z,98.2
2016-04-26T00:09:11.243Z,98.3
2016-04-26T00:10:11.215Z,98.49
2016-04-26T00:11:11.187Z,98.68
2016-04-26T00:12:11.158Z,98.86
2016-04-26T00:13:11.129Z,98.77
2016-04-26T00:14:11.086Z,99.43
2016-04-26T00:15:11.057Z,99.62
2016-04-26T00:16:11.028Z,99.33
2016-04-26T00:17:11.062Z,99.15
2016-04-26T00:18:10.972Z,99.52
2016-04-26T00:19:10.943Z,99.62
2016-04-26T00:20:10.914Z,99.99
2016-04-26T00:21:10.870Z,99.52
2016-04-26T00:22:10.841Z,99.99
2016-04-26T00:23:10.828Z,99.99
2016-04-26T00:24:10.800Z,99.99
2016-04-26T00:25:10.756Z,99.99
2016-04-26T00:26:10.727Z,99.99
2016-04-26T00:27:10.699Z,99.99
2016-04-26T00:28:10.655Z,99.99
2016-04-26T00:29:10.641Z,99.99
2016-04-26T00:30:10.597Z,99.9
2016-04-26T00:31:10.569Z,99.71
2016-04-26T00:32:10.541Z,99.99
2016-04-26T00:33:10.512Z,99.99
2016-04-26T00:34:10.483Z,99.81
2016-04-26T00:35:10.454Z,99.71
2016-04-26T00:36:10.426Z,99.81
2016-04-26T00:37:10.398Z,99.52
2016-04-26T00:38:10.385Z,99.62
2016-04-26T00:39:10.324Z,99.71
2016-04-26T00:40:10.296Z,99.43
2016-04-26T00:41:10.268Z,99.52
2016-04-26T00:42:10.239Z,99.62
2016-04-26T00:43:10.210Z,99.15
2016-04-26T00:44:10.181Z,99.15
2016-04-26T00:45:10.153Z,99.24
2016-04-26T00:46:10.250Z,98.68
2016-04-26T00:47:09.939Z,98.86
2016-04-26T00:48:10.053Z,98.72
2016-04-26T00:49:10.023Z,98.58
2016-04-26T00:50:09.994Z,98.91
2016-04-26T00:51:09.967Z,98.72
2016-04-26T00:52:09.922Z,98.53
2016-04-26T00:53:09.909Z,98.44
2016-04-26T00:54:09.865Z,98.44
2016-04-26T00:55:09.836Z,98.15
2016-04-26T00:56:09.808Z,98.15
2016-04-26T00:57:09.763Z,98.15
2016-04-26T00:58:09.750Z,98.25
2016-04-26T00:59:09.707Z,98.25
2016-04-26T01:00:09.678Z,97.49
2016-04-26T01:01:10.337Z,98.15
2016-04-26T01:02:09.996Z,97.87
2016-04-26T01:03:09.592Z,98.25
2016-04-26T01:04:09.564Z,98.15
2016-04-26T01:05:09.536Z,98.15
2016-04-26T01:06:09.491Z,97.87
2016-04-26T01:07:09.479Z,98.06
2016-04-26T01:08:09.434Z,98.06
2016-04-26T01:09:09.405Z,98.25
2016-04-26T01:10:09.376Z,97.77
2016-04-26T01:11:09.349Z,97.68
2016-04-26T01:12:09.320Z,98.34
2016-04-26T01:13:09.275Z,97.58
2016-04-26T01:14:09.248Z,98.34
2016-04-26T01:15:09.218Z,97.68
2016-04-26T01:16:09.174Z,97.49
2016-04-26T01:17:09.771Z,97.49
2016-04-26T01:18:09.117Z,97.68
2016-04-26T01:19:09.089Z,97.58
2016-04-26T01:20:09.060Z,97.58
2016-04-26T01:21:09.031Z,98.15
2016-04-26T01:22:09.002Z,98.34
2016-04-26T01:23:08.959Z,97.96
2016-04-26T01:24:08.930Z,98.06
2016-04-26T01:25:08.902Z,97.96
2016-04-26T01:26:08.873Z,98.53
2016-04-26T01:27:08.844Z,98.53
2016-04-26T01:28:08.816Z,98.44
2016-04-26T01:29:08.772Z,98.53
2016-04-26T01:30:08.744Z,98.44
2016-04-26T01:31:08.714Z,98.44
2016-04-26T01:32:08.733Z,98.39
2016-04-26T01:33:08.657Z,98.58
2016-04-26T01:34:08.629Z,98.58
2016-04-26T01:35:08.585Z,98.48
2016-04-26T01:36:08.572Z,98.2
2016-04-26T01:37:08.527Z,98.96
2016-04-26T01:38:08.499Z,98.96
2016-04-26T01:39:08.455Z,99.15
2016-04-26T01:40:08.427Z,99.8
2016-04-26T01:41:08.398Z,99.62
2016-04-26T01:42:08.368Z,99.05
2016-04-26T01:43:08.341Z,99.43
2016-04-26T01:44:08.312Z,99.43
2016-04-26T01:45:08.284Z,99.52
2016-04-26T01:46:08.239Z,99.62
2016-04-26T01:47:10.571Z,99.33
2016-04-26T01:48:08.182Z,99.43
2016-04-26T01:49:08.153Z,99.52
2016-04-26T01:50:08.125Z,99.24
2016-04-26T01:51:08.097Z,99.99
2016-04-26T01:52:08.052Z,99.99
2016-04-26T01:53:08.024Z,99.9
2016-04-26T01:54:07.995Z,99.99
2016-04-26T01:55:07.966Z,99.99
2016-04-26T01:56:07.939Z,99.99
2016-04-26T01:57:07.894Z,99.99
2016-04-26T01:58:07.865Z,99.99
2016-04-26T01:59:07.853Z,99.9
2016-04-26T02:00:07.808Z,99.9
2016-04-26T02:01:07.764Z,99.99
2016-04-26T02:02:07.736Z,99.99
2016-04-26T02:03:07.707Z,99.99
2016-04-26T02:04:07.678Z,99.99
2016-04-26T02:05:07.650Z,99.99
2016-04-26T02:06:07.605Z,99.99
2016-04-26T02:07:07.578Z,99.99
2016-04-26T02:08:07.549Z,99.99
2016-04-26T02:09:07.535Z,99.99
2016-04-26T02:10:07.492Z,99.99
2016-04-26T02:11:07.447Z,99.99
2016-04-26T02:12:07.418Z,99.99
2016-04-26T02:13:07.390Z,99.99
2016-04-26T02:14:07.362Z,99.99
2016-04-26T02:15:07.332Z,99.99
2016-04-26T02:16:07.304Z,99.99
2016-04-26T02:17:07.135Z,99.99
2016-04-26T02:18:07.232Z,99.99
2016-04-26T02:19:07.203Z,99.99
2016-04-26T02:20:07.175Z,99.99
2016-04-26T02:21:07.146Z,99.99
2016-04-26T02:22:07.117Z,99.99
2016-04-26T02:23:07.080Z,99.99
2016-04-26T02:24:07.052Z,99.99
2016-04-26T02:25:07.008Z,99.99
2016-04-26T02:26:06.979Z,99.99
2016-04-26T02:27:06.950Z,99.99
2016-04-26T02:28:06.922Z,99.99
2016-04-26T02:29:06.893Z,99.99
2016-04-26T02:30:06.865Z,99.99
2016-04-26T02:31:06.820Z,99.99
2016-04-26T02:32:08.152Z,99.99
2016-04-26T02:33:06.763Z,99.99
2016-04-26T02:34:06.734Z,99.99
2016-04-26T02:35:06.706Z,99.99
2016-04-26T02:36:06.662Z,99.99
2016-04-26T02:37:06.634Z,99.99
2016-04-26T02:38:06.604Z,99.99
2016-04-26T02:39:06.577Z,99.99
2016-04-26T02:40:06.548Z,99.99
2016-04-26T02:41:06.504Z,99.99
2016-04-26T02:42:06.490Z,99.99
2016-04-26T02:43:06.446Z,99.99
2016-04-26T02:44:06.418Z,99.99
2016-04-26T02:45:06.390Z,99.99
2016-04-26T02:46:06.361Z,99.99
2016-04-26T02:47:06.238Z,99.99
2016-04-26T02:48:06.289Z,99.99
2016-04-26T02:49:06.259Z,99.99
2016-04-26T02:50:06.246Z,99.99
2016-04-26T02:51:06.202Z,99.99
2016-04-26T02:52:06.159Z,99.99
2016-04-26T02:53:06.130Z,99.99
2016-04-26T02:54:06.116Z,99.99
2016-04-26T02:55:06.073Z,99.99
2016-04-26T02:56:06.043Z,99.99
2016-04-26T02:57:06.000Z,99.99
2016-04-26T02:58:05.971Z,99.99
2016-04-26T02:59:05.943Z,99.99
2016-04-26T03:00:05.914Z,99.99
2016-04-26T03:01:05.886Z,99.99
2016-04-26T03:02:05.888Z,99.99
2016-04-26T03:03:05.812Z,99.99
2016-04-26T03:04:05.785Z,99.99
2016-04-26T03:05:05.740Z,99.99
2016-04-26T03:06:05.712Z,99.99
2016-04-26T03:07:05.698Z,99.99
2016-04-26T03:08:05.654Z,99.99
2016-04-26T03:09:05.626Z,99.99
2016-04-26T03:10:05.597Z,99.99
2016-04-26T03:11:05.568Z,99.99
2016-04-26T03:12:05.525Z,99.99
2016-04-26T03:13:05.496Z,99.99
2016-04-26T03:14:05.467Z,99.99
2016-04-26T03:15:05.439Z,99.99
2016-04-26T03:16:05.410Z,99.99
2016-04-26T03:17:05.399Z,99.99
2016-04-26T03:18:05.338Z,99.99
2016-04-26T03:19:05.310Z,99.99
2016-04-26T03:20:05.281Z,99.99
2016-04-26T03:21:05.237Z,99.99
2016-04-26T03:22:05.224Z,99.99
2016-04-26T03:23:05.180Z,99.99
2016-04-26T03:24:05.167Z,99.99
2016-04-26T03:25:05.123Z,99.99
2016-04-26T03:26:05.079Z,99.99
2016-04-26T03:27:05.050Z,99.99
2016-04-26T03:28:05.022Z,99.99
2016-04-26T03:29:04.993Z,99.99
2016-04-26T03:30:04.964Z,99.99
2016-04-26T03:31:04.936Z,99.99
2016-04-26T03:32:04.736Z,99.99
2016-04-26T03:33:04.863Z,99.99
2016-04-26T03:34:04.835Z,99.99
2016-04-26T03:35:04.806Z,99.99
2016-04-26T03:36:04.761Z,99.99
2016-04-26T03:37:04.749Z,99.99
2016-04-26T03:38:04.721Z,99.99
2016-04-26T03:39:04.677Z,99.99
2016-04-26T03:40:04.647Z,99.99
2016-04-26T03:41:04.604Z,99.99
2016-04-26T03:42:04.575Z,99.99
2016-04-26T03:43:04.546Z,99.99
2016-04-26T03:44:04.518Z,99.99
2016-04-26T03:45:04.473Z,99.99
2016-04-26T03:46:04.461Z,99.99
2016-04-26T03:47:04.995Z,99.99
2016-04-26T03:48:04.387Z,99.99
2016-04-26T03:49:04.360Z,99.99
2016-04-26T03:50:04.315Z,99.99
2016-04-26T03:51:04.287Z,99.99
2016-04-26T03:52:04.259Z,99.99
2016-04-26T03:53:04.245Z,99.99
2016-04-26T03:54:04.201Z,99.99
2016-04-26T03:55:04.187Z,99.99
2016-04-26T03:56:04.128Z,99.99
2016-04-26T03:57:04.100Z,99.99
2016-04-26T03:58:04.070Z,99.99
2016-04-26T03:59:04.028Z,99.99
2016-04-26T04:00:04.014Z,99.99
2016-04-26T04:01:03.813Z,99.99
2016-04-26T04:02:03.942Z,99.99
2016-04-26T04:03:03.897Z,99.99
2016-04-26T04:04:03.868Z,99.99
2016-04-26T04:05:03.840Z,99.99
2016-04-26T04:06:03.811Z,99.99
2016-04-26T04:07:03.783Z,99.99
2016-04-26T04:08:03.755Z,99.99
2016-04-26T04:09:03.710Z,99.99
2016-04-26T04:10:03.676Z,99.99
2016-04-26T04:11:03.663Z,99.99
2016-04-26T04:12:03.618Z,99.99
2016-04-26T04:13:03.590Z,99.99
2016-04-26T04:14:03.562Z,99.99
2016-04-26T04:15:03.532Z,99.99
2016-04-26T04:16:03.489Z,99.99
2016-04-26T04:17:03.476Z,99.99
2016-04-26T04:18:03.431Z,99.99
2016-04-26T04:19:03.403Z,99.99
2016-04-26T04:20:03.375Z,99.99
2016-04-26T04:21:03.345Z,99.99
2016-04-26T04:22:03.301Z,99.99
2016-04-26T04:23:03.273Z,99.99
2016-04-26T04:24:03.245Z,99.99
2016-04-26T04:25:03.216Z,99.99
2016-04-26T04:26:03.187Z,99.99
2016-04-26T04:27:03.144Z,99.99
2016-04-26T04:28:03.114Z,99.99
2016-04-26T04:29:03.086Z,99.99
2016-04-26T04:30:03.057Z,99.99
2016-04-26T04:31:03.014Z,99.99
2016-04-26T04:32:03.501Z,99.99
2016-04-26T04:33:03.878Z,99.99
2016-04-26T04:34:02.928Z,99.99
2016-04-26T04:35:02.883Z,99.99
2016-04-26T04:36:02.855Z,99.85
2016-04-26T04:37:02.841Z,99.85
2016-04-26T04:38:02.798Z,99.66
2016-04-26T04:39:02.769Z,99.1
2016-04-26T04:40:02.741Z,98.82
2016-04-26T04:41:02.712Z,98.91
2016-04-26T04:42:02.668Z,98.63
2016-04-26T04:43:02.640Z,98.44
2016-04-26T04:44:02.610Z,98.06
2016-04-26T04:45:02.582Z,97.49
2016-04-26T04:46:02.554Z,97.77
2016-04-26T04:47:02.822Z,97.58
2016-04-26T04:48:02.481Z,96.92
2016-04-26T04:49:02.453Z,97.54
2016-04-26T04:50:02.423Z,96.69
2016-04-26T04:51:02.395Z,96.59
2016-04-26T04:52:02.351Z,96.31
2016-04-26T04:53:02.322Z,96.4
2016-04-26T04:54:02.294Z,96.59
2016-04-26T04:55:02.265Z,96.88
2016-04-26T04:56:02.236Z,96.69
2016-04-26T04:57:02.208Z,96.69
2016-04-26T04:58:02.180Z,96.02
2016-04-26T04:59:02.151Z,96.21
2016-04-26T05:00:02.107Z,96.21
2016-04-26T05:01:02.078Z,95.64
2016-04-26T05:02:01.894Z,95.64
2016-04-26T05:03:01.865Z,95.83
2016-04-26T05:04:01.993Z,95.55
2016-04-26T05:05:01.964Z,95.17
2016-04-26T05:06:01.935Z,94.79
2016-04-26T05:07:01.892Z,94.51
2016-04-26T05:08:01.862Z,94.84
2016-04-26T05:09:01.835Z,94.74
2016-04-26T05:10:01.806Z,93.99
2016-04-26T05:11:01.777Z,93.23
2016-04-26T05:12:01.749Z,93.13
2016-04-26T05:13:01.720Z,93.42
2016-04-26T05:14:01.691Z,93.42
2016-04-26T05:15:01.648Z,92.76
2016-04-26T05:16:01.618Z,93.42
2016-04-26T05:17:02.559Z,93.7
2016-04-26T05:18:01.561Z,93.61
2016-04-26T05:19:01.534Z,93.42
2016-04-26T05:20:01.505Z,92.76
2016-04-26T05:21:01.476Z,92.94
2016-04-26T05:22:01.448Z,93.04
2016-04-26T05:23:01.403Z,93.13
2016-04-26T05:24:01.390Z,92.85
2016-04-26T05:25:01.362Z,92.47
2016-04-26T05:26:01.317Z,92.94
2016-04-26T05:27:01.289Z,92.57
2016-04-26T05:28:01.261Z,92.57
2016-04-26T05:29:01.264Z,92
2016-04-26T05:30:01.203Z,92
2016-04-26T05:31:01.175Z,92
2016-04-26T05:32:01.194Z,92.57
2016-04-26T05:33:00.992Z,91.9
2016-04-26T05:34:01.089Z,91.81
2016-04-26T05:35:01.061Z,92.14
2016-04-26T05:36:01.032Z,91.38
2016-04-26T05:37:01.003Z,90.72
2016-04-26T05:38:00.974Z,91
2016-04-26T05:39:00.930Z,90.62
2016-04-26T05:40:00.902Z,89.86
2016-04-26T05:41:00.888Z,89.86
2016-04-26T05:42:00.845Z,89.96
2016-04-26T05:43:00.816Z,90.24
2016-04-26T05:44:00.804Z,90.34
2016-04-26T05:45:00.759Z,90.24
2016-04-26T05:46:00.731Z,90.62
2016-04-26T05:47:00.701Z,90.53
2016-04-26T05:48:00.954Z,90.05
2016-04-26T05:49:00.645Z,89.86
2016-04-26T05:50:00.695Z,89.86
2016-04-26T05:51:00.588Z,89.77
2016-04-26T05:52:00.559Z,89.77
2016-04-26T05:53:00.531Z,89.2
2016-04-26T05:54:00.518Z,89.29
2016-04-26T05:55:00.520Z,88.82
2016-04-26T05:56:00.445Z,88.73
2016-04-26T05:57:00.405Z,88.73
2016-04-26T05:58:00.771Z,87.87
2016-04-26T05:59:00.384Z,87.77
2016-04-26T06:00:00.324Z,87.68
2016-04-26T06:01:00.920Z,87.68
2016-04-26T06:02:01.136Z,87.49
2016-04-26T06:03:00.232Z,87.68
2016-04-26T06:04:00.203Z,86.83
2016-04-26T06:05:00.176Z,86.26
2016-04-26T06:06:00.194Z,86.11
2016-04-26T06:07:00.119Z,86.87
2016-04-26T06:08:00.089Z,85.45
2016-04-26T06:09:00.061Z,85.07
2016-04-26T06:10:00.032Z,85.17
2016-04-26T06:11:00.004Z,85.36
2016-04-26T06:11:59.975Z,85.17
2016-04-26T06:12:59.790Z,84.59
2016-04-26T06:13:59.918Z,84.98
2016-04-26T06:14:59.890Z,85.07
2016-04-26T06:15:59.861Z,84.5
2016-04-26T06:17:00.224Z,84.78
2016-04-26T06:17:59.648Z,84.88
2016-04-26T06:18:59.776Z,84.98
2016-04-26T06:19:59.606Z,84.98
2016-04-26T06:20:59.718Z,85.17
2016-04-26T06:21:59.690Z,85.26
2016-04-26T06:22:59.649Z,84.98
2016-04-26T06:23:59.636Z,86.64
2016-04-26T06:24:59.607Z,86.74
2016-04-26T06:25:59.579Z,87.87
2016-04-26T06:26:59.550Z,89.29
2016-04-26T06:27:59.537Z,90.72
2016-04-26T06:29:01.384Z,92.19
2016-04-26T06:29:59.480Z,91.71
2016-04-26T06:30:59.452Z,92.76
2016-04-26T06:31:59.532Z,93.89
2016-04-26T06:32:59.442Z,94.37
2016-04-26T06:33:59.334Z,94.65
2016-04-26T06:34:59.322Z,94.65
2016-04-26T06:35:59.278Z,95.03
2016-04-26T06:36:59.264Z,95.41
2016-04-26T06:37:59.220Z,95.6
2016-04-26T06:38:59.191Z,95.98
2016-04-26T06:39:59.179Z,96.17
2016-04-26T06:40:59.134Z,95.88
2016-04-26T06:41:59.121Z,95.88
2016-04-26T06:42:59.078Z,95.31
2016-04-26T06:43:59.049Z,96.07
2016-04-26T06:44:59.020Z,95.6
2016-04-26T06:45:58.992Z,95.5
2016-04-26T06:46:59.025Z,94.37
2016-04-26T06:47:59.138Z,94.46
2016-04-26T06:48:58.890Z,94.32
2016-04-26T06:49:58.862Z,93.84
2016-04-26T06:50:58.833Z,94.13
2016-04-26T06:51:58.804Z,94.6
2016-04-26T06:52:58.776Z,94.6
2016-04-26T06:53:58.763Z,94.79
2016-04-26T06:54:58.719Z,94.51
2016-04-26T06:55:58.690Z,94.27
2016-04-26T06:56:58.677Z,94.46
2016-04-26T06:57:58.633Z,95.12
2016-04-26T06:58:58.604Z,94.74
2016-04-26T06:59:58.560Z,95.6
2016-04-26T07:00:58.547Z,95.69
2016-04-26T07:01:58.519Z,96.36
2016-04-26T07:02:58.600Z,95.6
2016-04-26T07:03:58.446Z,96.26
2016-04-26T07:04:58.434Z,96.64
2016-04-26T07:05:58.406Z,96.92
2016-04-26T07:06:58.361Z,96.88
2016-04-26T07:07:58.348Z,97.06
2016-04-26T07:08:58.304Z,97.73
2016-04-26T07:09:58.291Z,97.82
2016-04-26T07:10:58.247Z,98.77
2016-04-26T07:11:58.217Z,98.3
2016-04-26T07:12:58.189Z,98.49
2016-04-26T07:13:58.161Z,98.77
2016-04-26T07:14:58.133Z,99.15
2016-04-26T07:15:58.103Z,98.77
2016-04-26T07:16:58.075Z,99.24
2016-04-26T07:17:58.094Z,99.15
2016-04-26T07:18:58.003Z,99.9
2016-04-26T07:19:57.974Z,99.58
2016-04-26T07:20:57.946Z,99.29
2016-04-26T07:21:57.916Z,99.29
2016-04-26T07:22:57.893Z,98.44
2016-04-26T07:23:57.848Z,98.54
2016-04-26T07:24:57.820Z,98.35
2016-04-26T07:25:57.792Z,98.91
2016-04-26T07:26:57.763Z,99.48
2016-04-26T07:27:57.751Z,98.91
2016-04-26T07:28:57.721Z,98.54
2016-04-26T07:29:57.678Z,98.91
2016-04-26T07:30:57.648Z,99.39
2016-04-26T07:31:57.620Z,98.82
2016-04-26T07:32:58.264Z,98.91
2016-04-26T07:33:57.563Z,99.99
2016-04-26T07:34:57.535Z,99.77
2016-04-26T07:35:57.489Z,99.29
2016-04-26T07:36:57.508Z,98.25
2016-04-26T07:37:57.450Z,97.97
2016-04-26T07:38:57.405Z,98.63
2016-04-26T07:39:57.376Z,98.91
2016-04-26T07:40:57.347Z,98.91
2016-04-26T07:41:57.319Z,98.63
2016-04-26T07:42:57.291Z,98.82
2016-04-26T07:43:57.261Z,98.16
2016-04-26T07:44:57.233Z,98.35
2016-04-26T07:45:57.579Z,98.63
2016-04-26T07:46:57.161Z,98.54
2016-04-26T07:47:57.226Z,97.59
2016-04-26T07:48:57.104Z,97.87
2016-04-26T07:49:57.075Z,97.83
2016-04-26T07:50:57.046Z,97.73
2016-04-26T07:51:57.018Z,97.92
2016-04-26T07:52:56.990Z,97.16
2016-04-26T07:53:56.960Z,97.45
2016-04-26T07:54:56.948Z,97.73
2016-04-26T07:55:56.903Z,97.92
2016-04-26T07:56:56.891Z,97.73
2016-04-26T07:57:56.832Z,97.83
2016-04-26T07:58:56.802Z,97.64
2016-04-26T07:59:56.790Z,98.16
2016-04-26T08:00:56.745Z,98.21
2016-04-26T08:01:56.716Z,98.25
2016-04-26T08:02:56.751Z,97.64
2016-04-26T08:03:56.659Z,97.45
2016-04-26T08:04:56.631Z,96.69
2016-04-26T08:05:56.602Z,96.59
2016-04-26T08:06:56.573Z,95.26
2016-04-26T08:07:56.576Z,95.36
2016-04-26T08:08:56.517Z,94.79
2016-04-26T08:09:56.489Z,95.12
2016-04-26T08:10:56.459Z,93.7
2016-04-26T08:11:56.431Z,93.51
2016-04-26T08:12:56.403Z,93.51
2016-04-26T08:13:56.374Z,92.61
2016-04-26T08:14:56.345Z,91.75
2016-04-26T08:15:56.316Z,92.52
2016-04-26T08:16:56.304Z,92.94
2016-04-26T08:17:56.291Z,92.94
2016-04-26T08:18:56.310Z,93.32
2016-04-26T08:19:56.203Z,93.7
2016-04-26T08:20:56.174Z,94.08
2016-04-26T08:21:56.161Z,93.13
2016-04-26T08:22:56.117Z,93.04
2016-04-26T08:23:55.963Z,94.08
2016-04-26T08:24:56.060Z,94.18
2016-04-26T08:25:56.046Z,93.99
2016-04-26T08:26:56.002Z,94.27
2016-04-26T08:27:55.990Z,93.32
2016-04-26T08:28:55.967Z,92.85
2016-04-26T08:29:55.927Z,93.51
2016-04-26T08:30:55.939Z,92.28
2016-04-26T08:31:55.953Z,92.85
2016-04-26T08:32:56.341Z,93.13
2016-04-26T08:33:56.120Z,93.13
2016-04-26T08:34:56.007Z,92.66
2016-04-26T08:35:55.977Z,91.9
2016-04-26T08:36:55.964Z,91.71
2016-04-26T08:37:55.966Z,90.81
2016-04-26T08:38:55.937Z,87.62
2016-04-26T08:39:55.922Z,83.78
2016-04-26T08:40:55.915Z,81.16
2016-04-26T08:41:55.892Z,79.01
2016-04-26T08:42:55.868Z,79.49
2016-04-26T08:43:55.846Z,80.53
2016-04-26T08:44:55.854Z,81.86
2016-04-26T08:45:55.795Z,81.86
2016-04-26T08:46:55.768Z,81.29
2016-04-26T08:47:57.445Z,80.53
2016-04-26T08:48:56.200Z,80.3
2016-04-26T08:49:55.705Z,80.87
2016-04-26T08:50:55.677Z,80.58
2016-04-26T08:51:55.664Z,80.68
2016-04-26T08:52:55.637Z,81.44
2016-04-26T08:53:55.609Z,80.64
2016-04-26T08:54:55.581Z,81.68
2016-04-26T08:55:55.553Z,82.07
2016-04-26T08:56:55.540Z,83.49
2016-04-26T08:57:55.513Z,83.87
2016-04-26T08:58:55.482Z,81.63
2016-04-26T08:59:55.454Z,80.77
2016-04-26T09:00:55.424Z,80.02
2016-04-26T09:01:55.412Z,80.35
2016-04-26T09:02:57.199Z,80.83
2016-04-26T09:03:56.310Z,82.16
2016-04-26T09:04:55.326Z,82.96
2016-04-26T09:05:55.297Z,82.45
2016-04-26T09:06:55.269Z,80.83
2016-04-26T09:07:55.256Z,81.87
2016-04-26T09:08:55.212Z,82.82
2016-04-26T09:09:55.198Z,82.73
2016-04-26T09:10:55.170Z,82.45
2016-04-26T09:11:55.157Z,81.02
2016-04-26T09:12:55.114Z,81.21
2016-04-26T09:13:55.100Z,81.21
2016-04-26T09:14:55.072Z,81.12
2016-04-26T09:15:55.042Z,82.26
2016-04-26T09:16:55.014Z,81.49
2016-04-26T09:17:55.002Z,80.26
2016-04-26T09:18:54.958Z,80.96
2016-04-26T09:19:54.944Z,80.16
2016-04-26T09:20:54.916Z,79.16
2016-04-26T09:21:55.325Z,79.54
2016-04-26T09:22:54.859Z,79.35
2016-04-26T09:23:54.830Z,79.92
2016-04-26T09:24:54.801Z,79.73
2016-04-26T09:25:54.774Z,77.97
2016-04-26T09:26:54.760Z,77.39
2016-04-26T09:27:54.732Z,76.44
2016-04-26T09:28:54.703Z,76.16
2016-04-26T09:29:54.674Z,75.68
2016-04-26T09:30:54.662Z,75.02
2016-04-26T09:31:54.632Z,74.82
2016-04-26T09:32:54.604Z,75.4
2016-04-26T09:33:54.591Z,76.82
2016-04-26T09:34:54.563Z,75.81
2016-04-26T09:35:54.534Z,73.34
2016-04-26T09:36:54.507Z,72.39
2016-04-26T09:37:54.477Z,73.15
2016-04-26T09:38:54.464Z,73.78
2016-04-26T09:39:54.436Z,73.21
2016-04-26T09:40:54.407Z,73.59
2016-04-26T09:41:54.395Z,74.69
2016-04-26T09:42:54.365Z,75.17
2016-04-26T09:43:54.337Z,76.21
2016-04-26T09:44:54.309Z,76.93
2016-04-26T09:45:54.295Z,77.31
2016-04-26T09:46:54.267Z,76.65
2016-04-26T09:47:54.269Z,76.37
2016-04-26T09:48:54.600Z,75.99
2016-04-26T09:49:54.181Z,75.6
2016-04-26T09:50:54.169Z,76.56
2016-04-26T09:51:54.140Z,77.03
2016-04-26T09:52:54.096Z,77.51
2016-04-26T09:53:54.083Z,77.07
2016-04-26T09:54:54.055Z,76.65
2016-04-26T09:55:54.026Z,76.84
2016-04-26T09:56:54.012Z,76.75
2016-04-26T09:57:53.984Z,77.47
2016-04-26T09:58:53.940Z,79.03
2016-04-26T09:59:53.927Z,79.65
2016-04-26T10:00:53.914Z,80.03
2016-04-26T10:01:53.870Z,80.98
2016-04-26T10:02:53.716Z,80.32
2016-04-26T10:03:53.813Z,80.98
2016-04-26T10:04:53.784Z,81.55
2016-04-26T10:05:53.771Z,81.45
2016-04-26T10:06:53.743Z,83.36
2016-04-26T10:07:53.715Z,84.01
2016-04-26T10:08:53.685Z,84.11
2016-04-26T10:09:53.657Z,83.97
2016-04-26T10:10:53.628Z,84.17
2016-04-26T10:11:53.601Z,85.02
2016-04-26T10:12:53.571Z,84.92
2016-04-26T10:13:53.543Z,84.74
2016-04-26T10:14:53.530Z,85.02
2016-04-26T10:15:53.486Z,85.11
2016-04-26T10:16:53.456Z,85.87
2016-04-26T10:17:53.429Z,86.07
2016-04-26T10:18:53.556Z,85.68
2016-04-26T10:19:53.372Z,85.11
2016-04-26T10:20:53.343Z,84.45
2016-04-26T10:21:53.314Z,83.83
2016-04-26T10:22:53.301Z,85.06
2016-04-26T10:23:53.273Z,84.11
2016-04-26T10:24:53.245Z,83.92
2016-04-26T10:25:53.230Z,84.01
2016-04-26T10:26:53.188Z,83.54
2016-04-26T10:27:53.159Z,82.59
2016-04-26T10:28:53.130Z,82.59
2016-04-26T10:29:53.102Z,83.83
2016-04-26T10:30:53.088Z,83.45
2016-04-26T10:31:53.061Z,82.78
2016-04-26T10:32:53.016Z,82.88
2016-04-26T10:33:53.269Z,82.59
2016-04-26T10:34:52.960Z,82.97
2016-04-26T10:35:52.930Z,82.78
2016-04-26T10:36:52.917Z,83.45
2016-04-26T10:37:52.889Z,83.83
2016-04-26T10:38:55.594Z,84.68
2016-04-26T10:39:52.848Z,84.97
2016-04-26T10:40:52.818Z,86.49
2016-04-26T10:41:52.774Z,88.1
2016-04-26T10:42:52.745Z,87.72
2016-04-26T10:43:52.889Z,88.67
2016-04-26T10:44:52.689Z,88.86
2016-04-26T10:45:52.660Z,88.1
2016-04-26T10:46:52.631Z,88.91
2016-04-26T10:47:52.603Z,90.33
2016-04-26T10:48:52.575Z,90.24
2016-04-26T10:49:52.545Z,90.24
2016-04-26T10:50:52.534Z,90.76
2016-04-26T10:51:52.489Z,89.76
2016-04-26T10:52:52.460Z,90.14
2016-04-26T10:53:52.447Z,90.19
2016-04-26T10:54:52.419Z,91.04
2016-04-26T10:55:52.390Z,89.81
2016-04-26T10:56:52.362Z,90.38
2016-04-26T10:57:52.333Z,89.05
2016-04-26T10:58:53.555Z,89.72
2016-04-26T10:59:52.276Z,89.72
2016-04-26T11:00:52.247Z,91.04
2016-04-26T11:01:52.219Z,91.85
2016-04-26T11:02:52.191Z,91.85
2016-04-26T11:03:55.131Z,91.28
2016-04-26T11:04:52.149Z,91.19
2016-04-26T11:05:52.120Z,89.47
2016-04-26T11:06:52.092Z,88.81
2016-04-26T11:07:52.079Z,88.19
2016-04-26T11:08:52.035Z,89.42
2016-04-26T11:09:52.007Z,88.95
2016-04-26T11:10:51.977Z,86.86
2016-04-26T11:11:51.965Z,85.72
2016-04-26T11:12:51.936Z,85.24
2016-04-26T11:13:51.908Z,85.62
2016-04-26T11:14:51.879Z,83.91
2016-04-26T11:15:51.851Z,84.29
2016-04-26T11:16:51.853Z,85.81
2016-04-26T11:17:51.793Z,84.29
2016-04-26T11:18:52.218Z,84.01
2016-04-26T11:19:51.767Z,83.76
2016-04-26T11:20:51.723Z,84.2
2016-04-26T11:21:51.695Z,82.15
2016-04-26T11:22:51.666Z,80.72
2016-04-26T11:23:51.637Z,79.96
2016-04-26T11:24:51.609Z,81.01
2016-04-26T11:25:51.597Z,81.29
2016-04-26T11:26:51.567Z,80.72
2016-04-26T11:27:51.539Z,80.44
2016-04-26T11:28:51.511Z,80.15
2016-04-26T11:29:51.498Z,78.82
2016-04-26T11:30:51.469Z,79.01
2016-04-26T11:31:51.441Z,80.24
2016-04-26T11:32:51.411Z,80.91
2016-04-26T11:33:51.289Z,80.24
2016-04-26T11:34:51.371Z,80.15
2016-04-26T11:35:51.342Z,78.38
2016-04-26T11:36:51.313Z,79.2
2016-04-26T11:37:51.284Z,77.97
2016-04-26T11:38:51.272Z,77.58
2016-04-26T11:39:51.243Z,78.1
2016-04-26T11:40:51.215Z,77.05
2016-04-26T11:41:51.171Z,77.01
2016-04-26T11:42:51.157Z,77.01
2016-04-26T11:43:51.128Z,76.44
2016-04-26T11:44:51.225Z,76.82
2016-04-26T11:45:51.088Z,77.58
2016-04-26T11:46:51.059Z,77.01
2016-04-26T11:47:51.031Z,75.78
2016-04-26T11:48:51.315Z,75.87
2016-04-26T11:49:50.973Z,75.72
2016-04-26T11:50:50.960Z,76.29
2016-04-26T11:51:50.931Z,75.43
2016-04-26T11:52:50.919Z,76.06
2016-04-26T11:53:50.875Z,75.72
2016-04-26T11:54:50.862Z,76.2
2016-04-26T11:55:50.834Z,75.72
2016-04-26T11:56:50.805Z,74.48
2016-04-26T11:57:50.775Z,74.2
2016-04-26T11:58:50.747Z,73.53
2016-04-26T11:59:50.734Z,74.67
2016-04-26T12:00:50.721Z,75.15
2016-04-26T12:01:50.677Z,73.63
2016-04-26T12:02:50.664Z,73.63
2016-04-26T12:03:50.464Z,73.3
2016-04-26T12:04:50.607Z,73.59
2016-04-26T12:05:50.579Z,73.88
2016-04-26T12:06:50.550Z,74.73
2016-04-26T12:07:50.538Z,75.49
2016-04-26T12:08:50.508Z,76.06
2016-04-26T12:09:50.480Z,77.92
2016-04-26T12:10:50.451Z,78.88
2016-04-26T12:11:50.424Z,79.73
2016-04-26T12:12:50.394Z,79.44
2016-04-26T12:13:50.381Z,79.63
2016-04-26T12:14:50.353Z,80.77
2016-04-26T12:15:50.356Z,81.16
2016-04-26T12:16:50.311Z,80.68
2016-04-26T12:17:50.283Z,81.16
2016-04-26T12:18:50.114Z,81.54
2016-04-26T12:19:50.226Z,80.49
2016-04-26T12:20:50.197Z,80.68
2016-04-26T12:21:50.184Z,81.35
2016-04-26T12:22:50.139Z,80.58
2016-04-26T12:23:50.127Z,81.73
2016-04-26T12:24:50.098Z,82.29
2016-04-26T12:25:50.070Z,81.35
2016-04-26T12:26:50.056Z,81.25
2016-04-26T12:27:50.013Z,82.24
2016-04-26T12:28:50.000Z,81.44
2016-04-26T12:29:50.003Z,81.38
2016-04-26T12:30:49.942Z,79.77
2016-04-26T12:31:49.914Z,80.53
2016-04-26T12:32:49.902Z,80.05
2016-04-26T12:33:49.857Z,80.44
2016-04-26T12:34:49.844Z,79.62
2016-04-26T12:35:49.830Z,77.43
2016-04-26T12:36:49.788Z,77.53
2016-04-26T12:37:49.758Z,76.57
2016-04-26T12:38:49.746Z,75.53
2016-04-26T12:39:49.717Z,73.82
2016-04-26T12:40:49.688Z,73.44
2016-04-26T12:41:49.660Z,73.44
2016-04-26T12:42:49.663Z,73.82
2016-04-26T12:43:49.619Z,73.72
2016-04-26T12:44:49.590Z,74.77
2016-04-26T12:45:49.561Z,74.39
2016-04-26T12:46:49.533Z,73.82
2016-04-26T12:47:49.521Z,74.87
2016-04-26T12:48:52.366Z,75.15
2016-04-26T12:49:49.478Z,74.71
2016-04-26T12:50:49.451Z,76.29
2016-04-26T12:51:49.421Z,77.05
2016-04-26T12:52:49.393Z,77.87
2016-04-26T12:53:49.395Z,78.82